AirNav   Everest Fuels
 
 1581 users online  

5WI4 Larson Airport
Marinette, Wisconsin, USA

GOING TO MARINETTE?


FAA INFORMATION EFFECTIVE 10 SEPTEMBER 2020

Location

FAA Identifier: 5WI4
Lat/Long: 45-04-52.9460N 087-40-45.3820W
45-04.882433N 087-40.756367W
45.0813739,-87.6792728
(estimated)
Elevation: 615 ft. / 187 m (estimated)
Variation: 02W (1985)
From city: 3 miles SW of MARINETTE, WI
Time zone: UTC -5 (UTC -6 during Standard Time)
Zip code: 54157

Airport Operations

Airport use: Private use. Permission required prior to landing
Activation date: 07/1976
Control tower: no
ARTCC: MINNEAPOLIS CENTER
FSS: GREEN BAY FLIGHT SERVICE STATION
Attendance: DAYLIGHT HOURS
Wind indicator: yes
Segmented circle: yes

Airport Communications

UNICOM: 122.8
WX AWOS-3PT at MNM (3 nm NE): 109.6 (906-863-8801)
WX AWOS-3 at OCQ (16 nm SW): 120.925 (920-835-1599)
WX AWOS-3PT at SUE (18 nm SE): 128.325 (920-743-7087)

Nearby radio navigation aids

VOR radial/distance  VOR name  Freq  Var
MNMr193/6.1MENOMINEE VOR/DME109.6000E
GRBr034/38.4GREEN BAY VORTAC115.5001E

 
NDB name  Hdg/Dist  Freq  Var  ID
TRIBE034/1.423903WTN - -.

Airport Services

Runway Information

Runway 18/36

Dimensions: 2600 x 75 ft. / 792 x 23 m
Surface: turf
RUNWAY 18  RUNWAY 36
Traffic pattern: rightleft
Obstructions: pline, 40 ft. from runwaytrees, 100 ft. from runway

Airport Ownership and Management from official FAA records

Ownership: Privately-owned
Owner: RICHARD LARSON
W 1619 CLEVELAND
MARINETTE, WI 54143
Phone 715-938-8687

Airport Operational Statistics

Aircraft based on the field: 2
Single engine airplanes: 2
    

Additional Remarks

FOR CD CTC MINNEAPOLIS ARTCC AT 651-463-5588.

Instrument Procedures

There are no published instrument procedures at 5WI4.

Some nearby airports with instrument procedures:

KMNM - Menominee Regional Airport (3 nm NE)
KOCQ - Oconto-J Douglas Bake Municipal Airport (16 nm SW)
KSUE - Door County Cherryland Airport (18 nm SE)
3D2 - Ephraim-Gibraltar Airport (21 nm E)
2P2 - Washington Island Airport (37 nm NE)
 
Loc | Ops | Rwys | IFR | FBO | Links
Com | Nav | Svcs | Stats | Notes
Area around 5WI4 (Larson Airport)
 
Road maps at: MapQuest Bing Google
 
Aerial photo
No photo
 
Sectional chart

 
Airport distance calculator
Flying to Larson Airport? Find the distance to fly.

From to 5WI4

Sunrise and sunset
Times for 18-Sep-2020
 Local
(UTC-5)
 Zulu
(UTC)
Morning civil twilight06:0611:06
Sunrise06:3511:35
Sunset18:5423:54
Evening civil twilight19:2300:23

Current date and time
Zulu (UTC)  18-Sep-2020 16:18:26
Local (UTC-5)  18-Sep-2020 11:18:26
 
METAR
KMNM 
3nm NE 
181556Z AUTO VRB05KT 10SM CLR 12/M01 A3046 RMK AO2 SLP318 T01171011 $
KOCQ 
16nm SW 
181555Z AUTO 06004KT 10SM CLR 12/M01 A3045 RMK AO1 T01161013
KSUE 
18nm SE 
181556Z AUTO 34006KT 10SM OVC050 11/03 A3046 RMK AO2 SLP318 T01060033 PNO $
TAF
KGRB 
41nm SW 
181122Z 1812/1912 02006KT P6SM SKC FM182300 12006KT P6SM SKC FM190200 19003KT P6SM SKC
NOTAMs
Click for the latest NOTAMs
NOTAMs are issued by the DoD/FAA and will open in a separate window not controlled by AirNav.

 

 
 

Would you like to see your business listed on this page?

 If your business provides an interesting product or service to pilots, flight crews, aircraft, or users of the Larson Airport, you should consider listing it here.  To start the listing process, click on the button below
 
Add a business
 

Other Pages about Larson Airport

Update a link
 
Copyright © AirNav, LLC. All rights reserved. Privacy Policy  Contact